Iowa City, IA

4:34 AM CDT on July 02, 2015 (GMT -0500)
NE - Iowa City | | Change Station
CLOSE
Current Station
Personal Weather Station
Location: Iowa City, IA
Elevation: 797 ft
Nearby Weather Stations

Elev 797 ft 41.67 °N, 91.48 °W | Updated 8 seconds ago

Overcast
Overcast
57.7 °F
Feels Like 57.7 °F
N
0.0
Wind Variable Wind from East
Gusts 7.0 mph

Today
High -- | Low -- °F
--% Chance of Precip.
Yesterday
High -- | Low -- °F
Precip. -- in
5:35 AM 8:44 PM
Full, 100% visible
Pressure 29.96 in
Visibility 10.0 miles
Clouds Overcast 11000 ft
Dew Point 49 °F
Humidity 73%
Rainfall 0.00 in
Snow Depth Not available.
UV 0 out of 12
Pollen 3.60 out of 12
Air Quality Not available.
Flu Activity Not available.
METAR KIOW 020852Z AUTO 08006KT 10SM OVC110 16/13 A2997 RMK AO2 SLP146 T01560133 58002

More Conditions Fewer Conditions

Pressure 29.96 in
Visibility 10.0 miles
Clouds Overcast 11000 ft
Dew Point 49 °F
Humidity 73%
Rainfall 0.00 in
Snow Depth Not available.
UV 0 out of 12
Pollen 3.60 out of 12
Air Quality Not available.
Flu Activity Not available.
METAR KIOW 020852Z AUTO 08006KT 10SM OVC110 16/13 A2997 RMK AO2 SLP146 T01560133 58002

More Conditions Fewer Conditions

10-Day Weather Forecast

×

Almanac

Astronomy

Jul. 02, 2015 Rise Set
Actual Time
Civil Twilight
Nautical Twilight
Astronomical Twilight
Moon
Length of Visible Light
Length of Day
Tomorrow will be .
, % of the Moon is Illuminated

Today's Extremes

State Highs State Lows

Community

WunderPhotos

Upload Photos

1,834,434 photos uploaded!

WunderBlogs® & News

Nearby

Air Quality

  Air Quality AQ Index Pollutant
Not available.

Snow Depth

Station Depth Elevation

Earthquake Activity

City Distance Mag. Time & Date
Minimum magnitude displayed is 2.5.

Coastal Water Temperatures

Place Temperature

Stations

Nearby Weather Stations

Station Location Temp. Windchill Dew Point Humidity Wind Precip. Elev Updated Type